Time;durP1;ratioP1;P1;durP2;ratioP2;P2;SDS_P1;SDS_P2;PMS_P1;PMS_P2;Temp;Humidity;BMP_temperature;BMP_pressure;BME280_temperature;BME280_humidity;BME280_pressure;Samples;Min_cycle;Max_cycle;Signal;HPM_P1;HPM_P2
2022/06/13 00:01:20;;;;;;;4.35;1.70;;;14.90;81.90;;;;;;5032147;28;20025;-72
2022/06/13 00:03:46;;;;;;;6.90;2.22;;;14.90;82.40;;;;;;5004002;28;20322;-71
2022/06/13 00:06:13;;;;;;;4.68;2.03;;;14.90;81.80;;;;;;5019597;28;20410;-72
2022/06/13 00:08:39;;;;;;;6.13;2.60;;;14.90;82.00;;;;;;5006398;28;20364;-72
2022/06/13 00:11:11;;;;;;;5.00;2.50;;;14.80;82.20;;;;;;5023205;28;20026;-72
2022/06/13 00:13:44;;;;;;;7.70;2.30;;;14.80;82.40;;;;;;5015894;28;20028;-71
2022/06/13 00:16:12;;;;;;;3.90;1.90;;;14.70;82.30;;;;;;5013608;28;20033;-71
2022/06/13 00:18:38;;;;;;;4.45;2.40;;;14.70;81.40;;;;;;5019055;28;20026;-71
2022/06/13 00:21:04;;;;;;;6.72;2.20;;;14.80;81.00;;;;;;5012092;28;20029;-72
2022/06/13 00:23:31;;;;;;;5.70;2.65;;;14.80;80.90;;;;;;5017868;28;20106;-71
2022/06/13 00:25:57;;;;;;;6.38;3.00;;;14.80;80.90;;;;;;5013430;28;20021;-71
2022/06/13 00:28:23;;;;;;;8.15;2.92;;;14.90;80.50;;;;;;5013347;28;20049;-72
2022/06/13 00:30:49;;;;;;;4.95;2.15;;;14.90;80.70;;;;;;4994753;28;20030;-71
2022/06/13 00:33:14;;;;;;;6.60;2.53;;;14.90;80.30;;;;;;5000964;28;20034;-71
2022/06/13 00:35:40;;;;;;;7.15;2.40;;;14.90;80.60;;;;;;5000673;28;20407;-71
2022/06/13 00:38:06;;;;;;;5.50;2.75;;;14.90;80.30;;;;;;5057370;28;20063;-71
2022/06/13 00:40:33;;;;;;;8.10;3.35;;;15.00;80.00;;;;;;4994284;28;20034;-71
2022/06/13 00:42:59;;;;;;;6.18;2.78;;;15.00;80.10;;;;;;4996532;28;20594;-71
2022/06/13 00:45:34;;;;;;;7.93;3.47;;;15.00;80.40;;;;;;4994360;28;20031;-71
2022/06/13 00:47:59;;;;;;;6.38;3.40;;;15.00;80.00;;;;;;4994074;28;20054;-71
2022/06/13 00:50:32;;;;;;;7.63;3.97;;;15.10;80.00;;;;;;4999876;28;20018;-71
2022/06/13 00:53:10;;;;;;;6.63;3.78;;;15.10;80.10;;;;;;4997222;28;20033;-70
2022/06/13 00:55:40;;;;;;;5.65;3.15;;;15.20;79.90;;;;;;5000829;28;20041;-71
2022/06/13 00:58:10;;;;;;;5.53;3.67;;;15.20;79.80;;;;;;4998820;28;20121;-70
2022/06/13 01:00:36;;;;;;;8.48;5.40;;;15.20;80.20;;;;;;4995865;28;20323;-70
2022/06/13 01:03:03;;;;;;;7.53;4.55;;;15.30;80.10;;;;;;5004785;28;20035;-71
2022/06/13 01:05:33;;;;;;;7.57;4.15;;;15.30;80.10;;;;;;4991924;28;20665;-70
2022/06/13 01:08:00;;;;;;;6.75;3.30;;;15.30;80.00;;;;;;5006810;28;20038;-70
2022/06/13 01:13:13;;;;;;;10.57;4.35;;;15.20;80.00;;;;;;4992562;28;20057;-70
2022/06/13 01:16:22;;;;;;;7.43;4.15;;;15.30;79.90;;;;;;4999148;28;20034;-70
2022/06/13 01:18:57;;;;;;;7.63;5.15;;;15.30;80.00;;;;;;5011632;28;20781;-70
2022/06/13 01:21:41;;;;;;;11.95;6.38;;;15.30;80.20;;;;;;5000170;28;20083;-70
2022/06/13 01:24:26;;;;;;;8.20;6.07;;;15.30;80.20;;;;;;4999687;28;20101;-70
2022/06/13 01:27:19;;;;;;;7.07;5.40;;;15.40;80.10;;;;;;5001915;28;20046;-70
2022/06/13 01:29:53;;;;;;;9.90;5.32;;;15.40;79.90;;;;;;5018382;28;20338;-70
2022/06/13 01:32:41;;;;;;;9.15;6.40;;;15.40;80.10;;;;;;4996152;28;20597;-70
2022/06/13 01:35:15;;;;;;;11.60;6.63;;;15.40;80.00;;;;;;4996114;28;20031;-70
2022/06/13 01:37:47;;;;;;;;;;;15.40;80.10;;;;;;5002016;28;20026;-70
2022/06/13 01:40:30;;;;;;;9.85;5.97;;;15.40;79.90;;;;;;4999351;28;19917;-70
2022/06/13 01:43:08;;;;;;;10.25;6.13;;;15.40;79.80;;;;;;4975272;28;20023;-70
2022/06/13 01:45:45;;;;;;;7.20;5.32;;;15.40;79.80;;;;;;4989898;28;20033;-70
2022/06/13 01:48:22;;;;;;;13.82;6.47;;;15.50;80.00;;;;;;4992470;28;20060;-70
2022/06/13 01:51:01;;;;;;;10.82;6.20;;;15.50;79.90;;;;;;5001572;28;20026;-70
2022/06/13 01:53:44;;;;;;;8.10;5.85;;;15.50;79.60;;;;;;5010837;28;20066;-70
2022/06/13 01:56:13;;;;;;;9.98;5.72;;;15.50;80.00;;;;;;4990144;28;20038;-70
2022/06/13 01:59:04;;;;;;;10.20;6.35;;;15.40;80.00;;;;;;4995594;28;20030;-69
2022/06/13 02:01:55;;;;;;;8.02;6.07;;;15.40;79.80;;;;;;4994773;28;20023;-69
2022/06/13 02:04:59;;;;;;;6.53;4.70;;;15.30;80.40;;;;;;4994449;28;20022;-68
2022/06/13 02:07:30;;;;;;;8.38;5.63;;;15.30;80.10;;;;;;4986321;28;20135;-68
2022/06/13 02:10:10;;;;;;;7.70;4.97;;;15.20;80.40;;;;;;5004563;28;20027;-70
2022/06/13 02:12:36;;;;;;;7.63;4.80;;;15.20;80.10;;;;;;4997123;28;20079;-70
2022/06/13 02:15:09;;;;;;;7.07;4.45;;;15.20;80.20;;;;;;4999364;28;20030;-70
2022/06/13 02:17:46;;;;;;;8.40;6.07;;;15.20;80.50;;;;;;5052626;27;20026;-71
2022/06/13 02:20:22;;;;;;;9.20;5.97;;;15.20;80.70;;;;;;5004038;28;20350;-69
2022/06/13 02:22:53;;;;;;;6.88;4.72;;;15.10;80.80;;;;;;4998955;28;20031;-70
2022/06/13 02:25:45;;;;;;;10.82;6.10;;;15.10;80.20;;;;;;4985297;28;20054;-70
2022/06/13 02:28:17;;;;;;;7.30;4.82;;;15.10;80.40;;;;;;5015032;28;20046;-70
2022/06/13 02:30:53;;;;;;;8.93;5.57;;;15.10;80.30;;;;;;4999341;28;20022;-70
2022/06/13 02:33:34;;;;;;;8.07;5.53;;;15.10;80.10;;;;;;5005208;28;20033;-70
2022/06/13 02:36:28;;;;;;;8.30;5.28;;;15.20;79.80;;;;;;5000881;28;20061;-70
2022/06/13 02:38:59;;;;;;;7.57;4.60;;;15.20;79.70;;;;;;4996852;28;20043;-70
2022/06/13 02:41:33;;;;;;;7.68;4.82;;;15.30;79.60;;;;;;4997536;28;20031;-70
2022/06/13 02:44:39;;;;;;;7.90;4.40;;;15.30;80.30;;;;;;5002443;28;20036;-70
2022/06/13 02:47:10;;;;;;;8.85;4.68;;;15.20;80.30;;;;;;5049292;28;20101;-70
2022/06/13 02:49:45;;;;;;;8.40;4.35;;;15.20;80.30;;;;;;5051140;28;21929;-70
2022/06/13 02:52:28;;;;;;;12.98;4.43;;;15.20;80.60;;;;;;5002116;28;20544;-70
2022/06/13 02:54:57;;;;;;;7.68;5.82;;;15.20;80.30;;;;;;5037386;28;20051;-71
2022/06/13 02:57:37;;;;;;;7.35;4.00;;;15.10;80.80;;;;;;5032430;28;20027;-70
2022/06/13 03:00:20;;;;;;;10.63;5.30;;;15.00;80.70;;;;;;4997243;28;20449;-69
2022/06/13 03:02:52;;;;;;;8.55;6.22;;;15.00;80.30;;;;;;4992642;28;20131;-70
2022/06/13 03:05:55;;;;;;;4.90;3.60;;;15.10;80.20;;;;;;4992421;28;20054;-70
2022/06/13 03:08:49;;;;;;;7.80;4.70;;;15.10;80.10;;;;;;5037945;28;20027;-71
2022/06/13 03:11:31;;;;;;;5.78;3.97;;;15.10;80.00;;;;;;4991678;28;20036;-70
2022/06/13 03:14:06;;;;;;;7.38;5.10;;;15.10;80.20;;;;;;4991310;28;20041;-70
2022/06/13 03:16:47;;;;;;;7.55;4.75;;;15.10;80.20;;;;;;5019284;28;20058;-70
2022/06/13 03:19:21;;;;;;;7.63;4.65;;;15.20;79.90;;;;;;4994179;28;20030;-71
2022/06/13 03:21:51;;;;;;;9.57;5.95;;;15.20;79.60;;;;;;4999463;28;20030;-70
2022/06/13 03:24:44;;;;;;;8.55;5.10;;;15.30;79.70;;;;;;5005153;28;20049;-70
2022/06/13 03:27:26;;;;;;;9.55;6.70;;;15.30;79.70;;;;;;5011011;28;20042;-70
2022/06/13 03:30:06;;;;;;;8.70;5.82;;;15.40;79.80;;;;;;5002765;28;20038;-70
2022/06/13 03:32:40;;;;;;;14.60;8.23;;;15.30;80.00;;;;;;4992380;28;20050;-70
2022/06/13 03:35:13;;;;;;;10.75;7.68;;;15.30;80.20;;;;;;4991820;28;20471;-70
2022/06/13 03:37:46;;;;;;;12.32;7.10;;;15.40;80.20;;;;;;5002686;28;20034;-70
2022/06/13 03:40:18;;;;;;;13.20;7.43;;;15.40;80.10;;;;;;4983824;28;20423;-70
2022/06/13 03:42:52;;;;;;;11.93;8.23;;;15.40;80.10;;;;;;4998080;28;20079;-70
2022/06/13 03:45:31;;;;;;;12.65;7.40;;;15.40;80.30;;;;;;5000234;28;20026;-70
2022/06/13 03:48:17;;;;;;;15.70;9.13;;;15.40;80.20;;;;;;4997895;28;20034;-70
2022/06/13 03:50:45;;;;;;;10.60;8.13;;;15.40;80.40;;;;;;5010127;28;20026;-70
2022/06/13 03:53:17;;;;;;;9.43;7.38;;;15.40;80.40;;;;;;5006906;28;20407;-70
2022/06/13 03:56:07;;;;;;;13.90;9.90;;;15.40;80.30;;;;;;4991514;28;20114;-70
2022/06/13 03:58:50;;;;;;;11.68;8.02;;;15.30;80.70;;;;;;5032248;28;20026;-70
2022/06/13 04:01:28;;;;;;;11.05;7.45;;;15.30;80.70;;;;;;4994913;28;20035;-70
2022/06/13 04:03:55;;;;;;;13.05;8.07;;;15.30;80.90;;;;;;4991556;28;20407;-69
2022/06/13 04:06:41;;;;;;;12.07;7.28;;;15.20;81.20;;;;;;4999405;28;20079;-70
2022/06/13 04:09:17;;;;;;;10.65;6.40;;;15.20;81.50;;;;;;5001784;28;20029;-70
2022/06/13 04:12:24;;;;;;;9.88;5.45;;;15.00;84.70;;;;;;5004172;28;20019;-70
2022/06/13 04:15:08;;;;;;;9.35;6.00;;;14.90;86.60;;;;;;4999864;28;20072;-70
2022/06/13 04:18:02;;;;;;;11.43;5.50;;;14.80;89.30;;;;;;5005505;28;20062;-70
2022/06/13 04:20:33;;;;;;;10.27;4.97;;;14.80;89.40;;;;;;4993869;28;20073;-70
2022/06/13 04:23:11;;;;;;;9.57;4.90;;;14.70;90.30;;;;;;4998452;28;20072;-70
2022/06/13 04:26:18;;;;;;;9.00;4.88;;;14.70;91.60;;;;;;5006577;28;20026;-70
2022/06/13 04:29:04;;;;;;;13.80;5.60;;;14.70;92.20;;;;;;5002761;28;20656;-70
2022/06/13 04:31:32;;;;;;;10.02;5.25;;;14.60;92.60;;;;;;5006174;28;20115;-70
2022/06/13 04:34:27;;;;;;;10.55;4.88;;;14.60;92.20;;;;;;5005333;28;20057;-70
2022/06/13 04:36:53;;;;;;;12.90;5.55;;;14.60;92.10;;;;;;4998141;28;20030;-70
2022/06/13 04:39:24;;;;;;;12.38;5.65;;;14.60;91.80;;;;;;5003178;28;20035;-70
2022/06/13 04:41:53;;;;;;;9.50;5.38;;;14.60;91.70;;;;;;5007048;28;20020;-70
2022/06/13 04:44:22;;;;;;;8.70;5.38;;;14.70;91.90;;;;;;5002811;28;20322;-70
2022/06/13 04:46:49;;;;;;;10.20;5.40;;;14.80;93.10;;;;;;4998341;28;20039;-70
2022/06/13 04:49:42;;;;;;;9.63;4.80;;;14.90;93.20;;;;;;5004223;28;20072;-69
2022/06/13 04:52:19;;;;;;;8.10;4.60;;;15.00;93.50;;;;;;4996651;28;20018;-70
2022/06/13 04:54:55;;;;;;;8.45;4.55;;;15.10;94.30;;;;;;4992227;28;20433;-69
2022/06/13 04:57:21;;;;;;;8.63;5.05;;;15.10;94.70;;;;;;4992078;28;20062;-69
2022/06/13 04:59:47;;;;;;;11.68;5.57;;;15.00;95.50;;;;;;4999257;28;20091;-71
2022/06/13 05:02:43;;;;;;;7.22;4.55;;;15.00;95.50;;;;;;4994628;28;20034;-69
2022/06/13 05:05:43;;;;;;;8.23;4.40;;;15.00;95.90;;;;;;5024100;28;20163;-70
2022/06/13 05:08:26;;;;;;;10.85;5.20;;;15.20;97.10;;;;;;4999208;28;20314;-70
2022/06/13 05:10:56;;;;;;;12.07;4.63;;;15.40;96.40;;;;;;5002894;28;20027;-70
2022/06/13 05:13:23;;;;;;;10.35;4.80;;;15.50;96.30;;;;;;5003699;28;20360;-71
2022/06/13 05:15:58;;;;;;;8.80;4.10;;;15.60;96.90;;;;;;4991710;28;20048;-69
2022/06/13 05:18:46;;;;;;;9.63;4.55;;;15.80;98.00;;;;;;4993271;28;20368;-70
2022/06/13 05:21:36;;;;;;;9.20;4.47;;;16.00;98.00;;;;;;5027378;28;20024;-70
2022/06/13 05:24:12;;;;;;;8.27;4.10;;;16.10;98.00;;;;;;5036963;28;20028;-69
2022/06/13 05:26:38;;;;;;;9.77;3.70;;;16.20;98.00;;;;;;4993460;28;20022;-69
2022/06/13 05:29:03;;;;;;;8.35;3.30;;;16.20;98.00;;;;;;4994545;28;20315;-70
2022/06/13 05:31:30;;;;;;;11.23;3.83;;;16.30;98.00;;;;;;4999061;28;20030;-69
2022/06/13 05:33:57;;;;;;;7.30;3.60;;;16.30;98.00;;;;;;5009342;28;20041;-70
2022/06/13 05:36:25;;;;;;;8.43;3.72;;;16.20;98.00;;;;;;5002981;28;20030;-69
2022/06/13 05:38:55;;;;;;;9.80;4.25;;;16.20;98.00;;;;;;5004077;28;20037;-70
2022/06/13 05:41:21;;;;;;;11.43;3.58;;;16.20;98.00;;;;;;5000942;28;20434;-69
2022/06/13 05:43:46;;;;;;;9.45;3.88;;;16.20;98.00;;;;;;4992775;28;20335;-70
2022/06/13 05:46:22;;;;;;;7.90;3.60;;;16.10;98.00;;;;;;5002680;28;20040;-69
2022/06/13 05:48:50;;;;;;;6.97;3.42;;;16.10;98.00;;;;;;4998641;28;20491;-68
2022/06/13 05:51:16;;;;;;;10.25;4.57;;;16.20;98.00;;;;;;5009199;28;20114;-69
2022/06/13 05:53:41;;;;;;;9.57;4.20;;;16.40;98.00;;;;;;5009183;28;20105;-69
2022/06/13 05:56:11;;;;;;;8.07;3.38;;;16.50;98.00;;;;;;5008815;28;20038;-69
2022/06/13 05:58:37;;;;;;;8.52;3.70;;;16.70;98.00;;;;;;4995521;28;20019;-69
2022/06/13 06:01:05;;;;;;;9.45;3.95;;;16.80;98.00;;;;;;4999893;28;20441;-70
2022/06/13 06:03:31;;;;;;;8.65;3.70;;;17.00;98.00;;;;;;5018961;28;20075;-68
2022/06/13 06:05:59;;;;;;;9.90;3.65;;;17.10;98.00;;;;;;4990981;28;20534;-69
2022/06/13 06:08:35;;;;;;;7.00;3.25;;;17.00;98.00;;;;;;5005573;28;20030;-69
2022/06/13 06:11:00;;;;;;;6.80;3.22;;;16.90;98.00;;;;;;5007989;28;20049;-69
2022/06/13 06:13:28;;;;;;;8.82;3.85;;;16.90;98.00;;;;;;5005883;28;20068;-71
2022/06/13 06:15:56;;;;;;;8.20;3.80;;;17.00;98.00;;;;;;4986064;28;20389;-70
2022/06/13 06:18:23;;;;;;;7.50;3.70;;;16.90;98.00;;;;;;5034538;28;20110;-70
2022/06/13 06:20:49;;;;;;;11.32;4.28;;;16.80;98.00;;;;;;4991766;28;20027;-69
2022/06/13 06:23:15;;;;;;;10.77;4.05;;;16.60;98.00;;;;;;5027523;28;20107;-70
2022/06/13 06:25:42;;;;;;;10.80;4.45;;;16.50;98.00;;;;;;5037962;28;20064;-69
2022/06/13 06:28:09;;;;;;;7.35;3.88;;;16.40;98.00;;;;;;4991286;28;20052;-70
2022/06/13 06:30:35;;;;;;;7.88;3.83;;;16.40;98.00;;;;;;4994300;28;20438;-70
2022/06/13 06:33:01;;;;;;;10.05;4.10;;;16.60;98.00;;;;;;4993394;28;20077;-70
2022/06/13 06:35:29;;;;;;;8.48;3.53;;;16.70;98.00;;;;;;4991716;28;20035;-70
2022/06/13 06:37:55;;;;;;;11.05;3.88;;;16.90;97.90;;;;;;4994148;28;20122;-70
2022/06/13 06:40:24;;;;;;;6.82;2.97;;;17.10;97.50;;;;;;4992873;28;20076;-69
2022/06/13 06:42:50;;;;;;;8.57;3.50;;;17.60;97.60;;;;;;4994310;28;20038;-70
2022/06/13 06:45:17;;;;;;;8.90;3.50;;;18.10;97.00;;;;;;4994042;28;20050;-70
2022/06/13 06:47:43;;;;;;;10.15;3.70;;;18.20;94.60;;;;;;4992993;28;20031;-69
2022/06/13 06:50:14;;;;;;;8.68;3.47;;;17.70;94.50;;;;;;5031761;28;20043;-70
2022/06/13 06:52:40;;;;;;;13.68;4.35;;;17.30;95.70;;;;;;4996685;28;20430;-70
2022/06/13 07:00:38;;;;;;;8.43;4.28;;;16.50;97.60;;;;;;5001638;28;20145;-70
2022/06/13 07:03:04;;;;;;;10.18;4.40;;;16.70;97.60;;;;;;5013967;28;20102;-70
2022/06/13 07:05:31;;;;;;;16.35;5.28;;;17.10;97.00;;;;;;5002461;28;20054;-70
2022/06/13 07:07:57;;;;;;;12.82;4.10;;;17.40;95.20;;;;;;5001241;28;20031;-69
2022/06/13 07:10:22;;;;;;;13.77;4.03;;;17.20;94.20;;;;;;4997281;28;20482;-70
2022/06/13 07:12:49;;;;;;;18.55;3.95;;;17.10;93.00;;;;;;4992572;28;20519;-69
2022/06/13 07:15:18;;;;;;;9.93;3.72;;;17.20;93.60;;;;;;5000818;28;20021;-70
2022/06/13 07:17:44;;;;;;;11.10;4.13;;;17.10;93.40;;;;;;5021289;28;20032;-70
2022/06/13 07:20:12;;;;;;;9.77;3.75;;;16.80;93.40;;;;;;5028908;28;20028;-70
2022/06/13 07:22:44;;;;;;;16.45;4.10;;;16.70;93.10;;;;;;5005278;28;20076;-70
2022/06/13 07:25:17;;;;;;;11.10;4.07;;;16.60;93.50;;;;;;5003521;28;20478;-70
2022/06/13 07:27:45;;;;;;;10.60;3.90;;;16.90;92.90;;;;;;5004961;28;20048;-70
2022/06/13 07:30:13;;;;;;;10.93;4.00;;;17.50;91.60;;;;;;5012966;28;20312;-70
2022/06/13 07:32:40;;;;;;;11.60;3.63;;;18.60;89.40;;;;;;5002790;28;20307;-69
2022/06/13 07:35:10;;;;;;;10.20;3.30;;;20.00;86.20;;;;;;4998811;28;20037;-69
2022/06/13 07:40:21;;;;;;;11.50;3.35;;;20.60;81.50;;;;;;5049970;28;20052;-70
2022/06/13 07:42:54;;;;;;;14.43;3.90;;;20.40;82.40;;;;;;5063440;28;20014;-70
2022/06/13 07:45:27;;;;;;;10.68;3.55;;;20.20;82.90;;;;;;5016638;28;20079;-69
2022/06/13 07:47:56;;;;;;;8.60;3.45;;;20.80;83.00;;;;;;4994315;28;20022;-70
2022/06/13 07:50:24;;;;;;;8.25;3.25;;;21.20;78.30;;;;;;4999521;28;20026;-69
2022/06/13 07:52:51;;;;;;;14.50;3.92;;;20.70;79.70;;;;;;5004389;28;20033;-69
2022/06/13 07:55:18;;;;;;;10.40;3.42;;;20.00;82.00;;;;;;5013099;28;20325;-69
2022/06/13 07:57:45;;;;;;;9.30;3.20;;;19.40;85.00;;;;;;5008288;28;20041;-69
2022/06/13 08:00:25;;;;;;;9.30;3.60;;;19.30;86.10;;;;;;5001374;28;20022;-70
2022/06/13 08:02:51;;;;;;;11.27;3.72;;;18.50;85.60;;;;;;5016594;28;20033;-71
2022/06/13 08:05:17;;;;;;;9.38;3.88;;;18.20;87.50;;;;;;5003877;28;20030;-70
2022/06/13 08:07:42;;;;;;;11.85;3.67;;;18.40;86.70;;;;;;4997461;28;20052;-70
2022/06/13 08:10:09;;;;;;;11.13;4.15;;;19.40;85.30;;;;;;5009491;28;20036;-71
2022/06/13 08:12:35;;;;;;;33.80;4.63;;;20.10;82.60;;;;;;5025743;28;20024;-70
2022/06/13 08:15:00;;;;;;;10.55;3.42;;;20.80;82.00;;;;;;5025987;28;20415;-70
2022/06/13 08:17:26;;;;;;;8.93;3.22;;;21.90;77.40;;;;;;4993601;28;20034;-70
2022/06/13 08:19:54;;;;;;;9.40;3.25;;;21.20;79.60;;;;;;4995638;28;20034;-70
2022/06/13 08:22:23;;;;;;;10.40;3.53;;;22.00;79.50;;;;;;5001212;28;20084;-70
2022/06/13 08:24:49;;;;;;;9.85;3.13;;;22.20;75.10;;;;;;5016777;28;20049;-70
2022/06/13 08:27:14;;;;;;;13.45;3.60;;;21.90;77.50;;;;;;4997793;28;20042;-70
2022/06/13 08:29:40;;;;;;;10.73;3.42;;;20.80;78.80;;;;;;4995212;28;20065;-71
2022/06/13 08:32:06;;;;;;;8.27;3.40;;;20.10;81.00;;;;;;4995026;28;20077;-70
2022/06/13 08:34:32;;;;;;;8.63;3.05;;;20.70;77.90;;;;;;5001416;28;20346;-71
2022/06/13 08:36:58;;;;;;;11.48;3.45;;;21.30;78.40;;;;;;4995643;28;20030;-68
2022/06/13 08:39:24;;;;;;;9.23;3.30;;;22.30;74.90;;;;;;4994216;28;20037;-69
2022/06/13 08:42:01;;;;;;;7.07;3.22;;;23.00;72.40;;;;;;4996513;28;20362;-69
2022/06/13 08:44:50;;;;;;;10.55;3.30;;;22.40;72.70;;;;;;4997006;28;20026;-69
2022/06/13 08:47:21;;;;;;;14.10;3.60;;;22.70;73.50;;;;;;4994280;28;20068;-70
2022/06/13 08:50:30;;;;;;;9.82;3.53;;;23.20;71.80;;;;;;5029632;28;20024;-69
2022/06/13 08:53:02;;;;;;;12.77;3.70;;;22.50;73.70;;;;;;4996064;28;20064;-69
2022/06/13 08:55:47;;;;;;;13.05;3.80;;;22.30;74.10;;;;;;4994552;28;20054;-68
2022/06/13 08:58:26;;;;;;;10.38;3.53;;;22.10;73.90;;;;;;4995378;28;20037;-69
2022/06/13 09:01:05;;;;;;;11.50;3.10;;;22.50;74.10;;;;;;4990558;28;20034;-69
2022/06/13 09:03:35;;;;;;;11.05;3.60;;;22.40;74.40;;;;;;4994956;28;20022;-69
2022/06/13 09:06:14;;;;;;;11.82;3.47;;;21.50;76.80;;;;;;4995084;28;20034;-69
2022/06/13 09:09:06;;;;;;;13.48;3.47;;;21.30;78.60;;;;;;4999326;28;20026;-69
2022/06/13 09:11:37;;;;;;;10.63;2.97;;;22.10;75.50;;;;;;4987833;28;20026;-70
2022/06/13 09:14:21;;;;;;;9.65;2.97;;;23.40;72.00;;;;;;4999330;28;20031;-69
2022/06/13 09:17:01;;;;;;;7.50;2.70;;;23.90;70.00;;;;;;4993423;28;20066;-69
2022/06/13 09:19:36;;;;;;;7.63;2.67;;;24.90;66.40;;;;;;5012044;28;20085;-69
2022/06/13 09:22:14;;;;;;;9.93;3.40;;;24.90;66.60;;;;;;4992902;28;20050;-69
2022/06/13 09:24:58;;;;;;;8.30;2.85;;;22.70;67.70;;;;;;4993655;28;20022;-69
2022/06/13 09:27:30;;;;;;;7.53;2.40;;;21.80;72.00;;;;;;4994366;28;20051;-68
2022/06/13 09:30:19;;;;;;;7.70;2.55;;;23.30;72.40;;;;;;4998182;28;20350;-68
2022/06/13 09:32:58;;;;;;;10.40;3.10;;;24.70;66.00;;;;;;4990588;28;20113;-69
2022/06/13 09:35:28;;;;;;;7.05;2.92;;;24.70;65.60;;;;;;4993641;28;20414;-69
2022/06/13 09:38:20;;;;;;;9.25;2.95;;;23.90;65.40;;;;;;4993513;28;20061;-69
2022/06/13 09:41:00;;;;;;;11.55;2.50;;;23.80;66.10;;;;;;5001070;28;20041;-70
2022/06/13 09:43:41;;;;;;;8.73;2.78;;;24.70;66.50;;;;;;4991891;28;20310;-70
2022/06/13 09:46:25;;;;;;;8.82;2.90;;;24.10;66.40;;;;;;4998978;28;20030;-69
2022/06/13 09:49:36;;;;;;;9.65;2.83;;;22.90;68.00;;;;;;4998195;28;20037;-68
2022/06/13 09:52:12;;;;;;;8.60;2.75;;;22.90;67.90;;;;;;5009620;28;20034;-69
2022/06/13 09:54:50;;;;;;;13.60;2.75;;;22.80;68.80;;;;;;5011838;28;20063;-69
2022/06/13 09:57:34;;;;;;;8.90;3.13;;;22.30;68.10;;;;;;4999855;28;20026;-67
2022/06/13 10:00:22;;;;;;;8.90;3.20;;;22.80;68.10;;;;;;5000658;28;20025;-69
2022/06/13 10:03:15;;;;;;;7.15;2.65;;;23.20;66.00;;;;;;4998167;28;20023;-69
2022/06/13 10:06:35;;;;;;;7.90;2.70;;;22.80;65.90;;;;;;4992019;28;20101;-69
2022/06/13 10:09:14;;;;;;;9.93;2.83;;;23.20;67.40;;;;;;5003191;28;20038;-69
2022/06/13 10:12:17;;;;;;;8.00;2.88;;;22.90;68.10;;;;;;4989163;28;20031;-69
2022/06/13 10:15:24;;;;;;;9.10;2.70;;;23.40;69.30;;;;;;4994602;28;20436;-69
2022/06/13 10:18:03;;;;;;;8.15;2.42;;;25.30;64.60;;;;;;5003023;28;20440;-70
2022/06/13 10:20:45;;;;;;;8.07;2.88;;;26.40;62.50;;;;;;5019785;28;20035;-69
2022/06/13 10:23:41;;;;;;;7.47;2.25;;;25.60;64.20;;;;;;5004884;28;20030;-70
2022/06/13 10:26:15;;;;;;;8.20;2.40;;;24.90;66.20;;;;;;4999517;28;20018;-69
2022/06/13 10:29:12;;;;;;;9.50;2.55;;;25.10;65.70;;;;;;4993005;28;20046;-70
2022/06/13 10:31:59;;;;;;;7.15;2.20;;;25.80;61.40;;;;;;4996742;28;20050;-70
2022/06/13 10:34:38;;;;;;;8.00;2.67;;;26.90;63.60;;;;;;5004971;28;20091;-69
2022/06/13 10:37:12;;;;;;;5.75;2.20;;;27.50;59.30;;;;;;4999511;28;20303;-70
2022/06/13 10:39:38;;;;;;;10.05;2.63;;;28.30;62.90;;;;;;5013595;28;20316;-70
2022/06/13 10:42:09;;;;;;;9.52;2.25;;;28.40;57.60;;;;;;5007802;28;20018;-69
2022/06/13 10:44:39;;;;;;;6.85;2.42;;;26.80;58.10;;;;;;4993329;28;20028;-68
2022/06/13 10:47:38;;;;;;;6.55;2.65;;;24.90;61.90;;;;;;5005225;28;20303;-68
2022/06/13 10:50:16;;;;;;;8.75;2.90;;;23.60;65.20;;;;;;5052127;28;20055;-68
2022/06/13 10:52:47;;;;;;;7.38;2.33;;;22.10;66.70;;;;;;5000539;28;20042;-68
2022/06/13 10:55:20;;;;;;;9.13;2.90;;;21.60;68.40;;;;;;4993082;28;20473;-69
2022/06/13 10:58:08;;;;;;;9.35;2.95;;;21.30;70.70;;;;;;4995853;28;20507;-70
2022/06/13 11:00:35;;;;;;;8.38;2.25;;;21.20;69.90;;;;;;5028471;28;20027;-70
2022/06/13 11:03:14;;;;;;;8.48;2.65;;;21.10;70.70;;;;;;5001383;28;20026;-69
2022/06/13 11:05:59;;;;;;;6.45;2.30;;;22.40;67.30;;;;;;5004869;28;20018;-70
2022/06/13 11:08:27;;;;;;;5.78;2.13;;;23.20;62.40;;;;;;5013509;28;20117;-70
2022/06/13 11:10:59;;;;;;;6.85;2.30;;;24.10;62.50;;;;;;4999697;28;20322;-70
2022/06/13 11:13:36;;;;;;;7.82;2.60;;;24.10;61.40;;;;;;4995567;28;20143;-70
2022/06/13 11:24:51;;;;;;;11.13;2.47;;;21.90;66.70;;;;;;5001869;28;20041;-70
2022/06/13 11:27:40;;;;;;;7.05;2.22;;;21.40;69.10;;;;;;4991548;28;20050;-68
2022/06/13 11:30:41;;;;;;;8.65;2.28;;;22.10;68.10;;;;;;4990142;28;20037;-70
2022/06/13 11:33:09;;;;;;;8.65;2.50;;;23.30;64.60;;;;;;5003414;28;20050;-69
2022/06/13 11:35:45;;;;;;;7.90;2.33;;;24.10;61.80;;;;;;4991849;28;20022;-68
2022/06/13 11:38:18;;;;;;;7.70;2.58;;;23.40;62.40;;;;;;4983752;28;20037;-69
2022/06/13 11:41:04;;;;;;;9.43;2.53;;;22.60;62.30;;;;;;4999570;28;20109;-70
2022/06/13 11:44:06;;;;;;;8.05;2.05;;;21.90;64.60;;;;;;4993365;28;20022;-70
2022/06/13 11:47:04;;;;;;;6.30;2.03;;;22.20;63.00;;;;;;4989366;28;20442;-71
2022/06/13 11:49:41;;;;;;;4.60;1.85;;;23.20;59.60;;;;;;4981588;28;20035;-70
2022/06/13 11:52:09;;;;;;;4.70;1.63;;;23.80;58.30;;;;;;4988160;28;20026;-69
2022/06/13 11:54:51;;;;;;;6.15;1.75;;;24.20;57.20;;;;;;4990882;28;20361;-70
2022/06/13 11:57:26;;;;;;;6.97;1.95;;;24.20;57.90;;;;;;4991400;28;20038;-69
2022/06/13 12:00:16;;;;;;;5.53;1.60;;;24.80;57.10;;;;;;5011212;28;20030;-69
2022/06/13 12:02:42;;;;;;;7.43;1.90;;;24.90;57.10;;;;;;5002711;28;20068;-69
2022/06/13 12:05:20;;;;;;;7.47;1.80;;;25.20;58.20;;;;;;5006667;28;20065;-70
2022/06/13 12:07:59;;;;;;;5.68;1.70;;;24.90;57.40;;;;;;4993575;28;20114;-69
2022/06/13 12:10:29;;;;;;;6.10;1.73;;;25.10;59.90;;;;;;4995043;28;20089;-69
2022/06/13 12:12:55;;;;;;;6.20;1.70;;;25.00;58.30;;;;;;4999816;28;20026;-71
2022/06/13 12:15:27;;;;;;;8.30;1.80;;;23.90;60.10;;;;;;5000279;28;20034;-70
2022/06/13 12:18:04;;;;;;;6.28;1.73;;;24.10;60.70;;;;;;5007613;28;20066;-71
2022/06/13 12:20:50;;;;;;;6.38;2.35;;;24.80;59.40;;;;;;4999496;28;20015;-71
2022/06/13 12:23:41;;;;;;;6.38;1.70;;;24.10;59.80;;;;;;5019682;28;20026;-71
2022/06/13 12:26:28;;;;;;;5.78;1.77;;;23.40;59.30;;;;;;4983990;28;20037;-70
2022/06/13 12:29:18;;;;;;;6.00;1.75;;;24.20;59.90;;;;;;5000450;28;20056;-70
2022/06/13 12:31:53;;;;;;;6.28;1.95;;;24.60;56.70;;;;;;5018452;28;20353;-69
2022/06/13 12:34:45;;;;;;;5.65;1.80;;;23.80;58.70;;;;;;5005567;28;20438;-69
2022/06/13 12:37:14;;;;;;;6.28;1.63;;;24.00;60.00;;;;;;4994945;28;20074;-71
2022/06/13 12:39:39;;;;;;;4.63;1.40;;;25.00;57.30;;;;;;5001027;28;20113;-71
2022/06/13 12:42:43;;;;;;;4.53;1.50;;;25.40;56.80;;;;;;5010934;28;20101;-70
2022/06/13 12:45:42;;;;;;;4.50;1.45;;;26.30;56.30;;;;;;5002423;28;20114;-70
2022/06/13 12:48:39;;;;;;;5.80;2.00;;;25.00;56.50;;;;;;4994348;28;20040;-71
2022/06/13 12:51:14;;;;;;;6.45;1.83;;;24.70;59.60;;;;;;5013535;28;20415;-70
2022/06/13 12:54:07;;;;;;;6.32;2.35;;;25.10;56.80;;;;;;5057681;28;20323;-71
2022/06/13 12:56:53;;;;;;;4.67;1.70;;;24.60;57.40;;;;;;4976317;28;20076;-70
2022/06/13 12:59:24;;;;;;;4.55;1.50;;;23.40;57.70;;;;;;4995954;28;20296;-70
2022/06/13 13:02:22;;;;;;;6.20;1.70;;;22.50;59.80;;;;;;5015174;28;20044;-70
2022/06/13 13:05:27;;;;;;;5.30;1.60;;;22.50;60.00;;;;;;5020440;28;20056;-70
2022/06/13 13:08:18;;;;;;;6.95;1.65;;;22.60;60.20;;;;;;5014126;28;20076;-70
2022/06/13 13:11:13;;;;;;;6.85;1.88;;;22.00;59.70;;;;;;5006779;28;20049;-70
2022/06/13 13:13:51;;;;;;;5.22;1.58;;;21.80;60.30;;;;;;4976043;28;20037;-70
2022/06/13 13:16:41;;;;;;;6.35;1.90;;;21.80;60.50;;;;;;4982108;28;20330;-70
2022/06/13 13:19:40;;;;;;;6.03;1.60;;;22.20;60.00;;;;;;5013599;28;20030;-70
2022/06/13 13:22:12;;;;;;;4.45;1.50;;;23.30;60.50;;;;;;5013513;28;20322;-70
2022/06/13 13:24:46;;;;;;;5.47;1.75;;;23.20;59.60;;;;;;5014989;28;20022;-70
2022/06/13 13:27:17;;;;;;;4.70;1.75;;;23.20;59.70;;;;;;5012507;28;20108;-70
2022/06/13 13:29:52;;;;;;;4.10;1.50;;;23.90;60.10;;;;;;5014964;28;20034;-70
2022/06/13 13:32:36;;;;;;;3.40;1.35;;;24.80;56.40;;;;;;5011279;28;20026;-70
2022/06/13 13:35:23;;;;;;;5.10;1.50;;;25.10;54.90;;;;;;5014580;28;20067;-71
2022/06/13 13:37:55;;;;;;;5.30;1.40;;;25.00;55.40;;;;;;5008794;28;20038;-69
2022/06/13 13:40:35;;;;;;;5.00;1.50;;;25.50;56.20;;;;;;5014533;28;20304;-69
2022/06/13 13:43:11;;;;;;;7.18;1.90;;;25.90;53.90;;;;;;5012227;28;20030;-69
2022/06/13 13:45:58;;;;;;;4.78;1.30;;;26.50;55.40;;;;;;5014361;28;20026;-69
2022/06/13 13:48:34;;;;;;;6.72;1.80;;;26.40;52.30;;;;;;4975011;28;20039;-69
2022/06/13 13:51:10;;;;;;;4.05;1.40;;;26.50;52.30;;;;;;4992904;28;20415;-70